Time;durP1;ratioP1;P1;durP2;ratioP2;P2;SDS_P1;SDS_P2;PMS_P1;PMS_P2;Temp;Humidity;BMP_temperature;BMP_pressure;BME280_temperature;BME280_humidity;BME280_pressure;Samples;Min_cycle;Max_cycle;Signal;HPM_P1;HPM_P2
2021/09/11 00:01:49;;;;;;;3.38;1.88;;;;;;;;;;5116222;28;20023;-67
2021/09/11 00:04:15;;;;;;;2.38;2.03;;;;;;;;;;5117672;28;20073;-71
2021/09/11 00:06:40;;;;;;;3.08;2.50;;;;;;;;;;5116831;28;20034;-67
2021/09/11 00:09:05;;;;;;;2.63;1.70;;;;;;;;;;5130141;28;20023;-68
2021/09/11 00:11:31;;;;;;;3.85;2.08;;;;;;;;;;5131534;28;20041;-67
2021/09/11 00:13:57;;;;;;;4.82;2.30;;;;;;;;;;5131391;28;20499;-67
2021/09/11 00:16:22;;;;;;;2.90;2.10;;;;;;;;;;5130474;28;20083;-67
2021/09/11 00:18:47;;;;;;;3.17;1.80;;;;;;;;;;5131816;28;20061;-67
2021/09/11 00:21:13;;;;;;;3.78;2.03;;;;;;;;;;5130702;28;20047;-69
2021/09/11 00:23:39;;;;;;;1.75;1.65;;;;;;;;;;5131483;28;20110;-67
2021/09/11 00:26:04;;;;;;;2.28;1.75;;;;;;;;;;5131303;28;20102;-67
2021/09/11 00:28:30;;;;;;;2.67;1.42;;;;;;;;;;5113897;28;20036;-68
2021/09/11 00:30:55;;;;;;;1.98;1.80;;;;;;;;;;5111332;28;20023;-67
2021/09/11 00:33:20;;;;;;;1.88;1.70;;;;;;;;;;5092440;28;20036;-67
2021/09/11 00:35:48;;;;;;;2.53;1.85;;;;;;;;;;5111778;28;20137;-67
2021/09/11 00:38:16;;;;;;;5.80;2.10;;;;;;;;;;5131474;28;20027;-67
2021/09/11 00:40:41;;;;;;;2.30;2.10;;;;;;;;;;5132369;28;20410;-67
2021/09/11 00:43:06;;;;;;;2.67;2.10;;;;;;;;;;5130546;28;20031;-67
2021/09/11 00:45:32;;;;;;;2.38;2.17;;;;;;;;;;5111689;28;20461;-67
2021/09/11 00:47:57;;;;;;;2.65;2.25;;;;;;;;;;5113179;28;20373;-67
2021/09/11 00:50:23;;;;;;;2.85;2.40;;;;;;;;;;5110200;28;20019;-67
2021/09/11 00:52:50;;;;;;;3.80;2.58;;;;;;;;;;5111634;28;20381;-67
2021/09/11 00:55:16;;;;;;;2.50;2.13;;;;;;;;;;5115043;28;20477;-74
2021/09/11 00:57:49;;;;;;;4.43;2.50;;;;;;;;;;5113971;28;20046;-67
2021/09/11 01:00:15;;;;;;;4.22;2.55;;;;;;;;;;5114665;28;20047;-67
2021/09/11 01:02:41;;;;;;;2.78;2.50;;;;;;;;;;5114119;28;20023;-67
2021/09/11 01:05:08;;;;;;;2.22;2.03;;;;;;;;;;5113809;28;20749;-70
2021/09/11 01:07:37;;;;;;;2.85;2.40;;;;;;;;;;5129075;27;20591;-71
2021/09/11 01:10:03;;;;;;;2.90;2.60;;;;;;;;;;5132967;27;20035;-68
2021/09/11 01:12:30;;;;;;;3.03;2.28;;;;;;;;;;5134396;27;20410;-67
2021/09/11 01:15:03;;;;;;;3.55;2.35;;;;;;;;;;5134847;27;20100;-68
2021/09/11 01:17:29;;;;;;;3.00;2.47;;;;;;;;;;5132829;27;20514;-67
2021/09/11 01:19:54;;;;;;;3.42;2.40;;;;;;;;;;5134991;27;20057;-69
2021/09/11 01:22:20;;;;;;;3.67;2.40;;;;;;;;;;5134242;27;20027;-69
2021/09/11 01:24:55;;;;;;;3.58;2.50;;;;;;;;;;5115336;27;20046;-67
2021/09/11 01:27:24;;;;;;;4.30;3.13;;;;;;;;;;5133974;27;20019;-67
2021/09/11 01:30:12;;;;;;;7.07;3.00;;;;;;;;;;5134796;27;20553;-67
2021/09/11 01:32:37;;;;;;;4.57;2.92;;;;;;;;;;5133954;27;20494;-67
2021/09/11 01:35:04;;;;;;;4.90;2.45;;;;;;;;;;5133901;27;20130;-67
2021/09/11 01:37:29;;;;;;;6.63;2.88;;;;;;;;;;5134472;27;20134;-70
2021/09/11 01:39:55;;;;;;;5.85;2.75;;;;;;;;;;5134278;27;20090;-67
2021/09/11 01:42:22;;;;;;;3.28;2.97;;;;;;;;;;5116816;27;20495;-67
2021/09/11 01:44:52;;;;;;;4.50;2.92;;;;;;;;;;5134006;27;20520;-67
2021/09/11 01:47:17;;;;;;;3.88;2.65;;;;;;;;;;5134295;27;20533;-67
2021/09/11 01:49:43;;;;;;;3.92;2.80;;;;;;;;;;5134657;27;20063;-68
2021/09/11 01:52:09;;;;;;;4.03;2.77;;;;;;;;;;5122531;27;20034;-71
2021/09/11 01:54:36;;;;;;;5.13;2.80;;;;;;;;;;5114190;28;20020;-68
2021/09/11 01:57:02;;;;;;;4.32;2.70;;;;;;;;;;5113063;28;20027;-67
2021/09/11 01:59:27;;;;;;;6.40;3.00;;;;;;;;;;5113729;28;20034;-67
2021/09/11 02:01:53;;;;;;;5.07;2.60;;;;;;;;;;4052232;27;10000754;-70
2021/09/11 02:04:18;;;;;;;4.53;2.75;;;;;;;;;;5123472;27;20019;-68
2021/09/11 02:06:43;;;;;;;3.60;3.03;;;;;;;;;;5131354;27;20027;-70
2021/09/11 02:09:11;;;;;;;3.60;3.08;;;;;;;;;;5131911;27;20050;-67
2021/09/11 02:11:36;;;;;;;4.88;3.45;;;;;;;;;;5133660;27;20086;-68
2021/09/11 02:14:01;;;;;;;4.38;3.00;;;;;;;;;;5108564;28;20170;-70
2021/09/11 02:16:27;;;;;;;3.45;2.92;;;;;;;;;;5112790;28;20024;-68
2021/09/11 02:18:52;;;;;;;4.95;3.05;;;;;;;;;;5111704;28;20020;-70
2021/09/11 02:21:17;;;;;;;3.45;3.10;;;;;;;;;;5112054;28;20476;-67
2021/09/11 02:23:43;;;;;;;5.53;3.05;;;;;;;;;;5113362;28;20019;-68
2021/09/11 02:26:08;;;;;;;3.55;3.22;;;;;;;;;;5111449;28;20400;-68
2021/09/11 02:28:33;;;;;;;3.13;2.85;;;;;;;;;;5112318;28;20039;-67
2021/09/11 02:30:59;;;;;;;4.22;2.90;;;;;;;;;;5113141;28;20190;-67
2021/09/11 02:33:24;;;;;;;4.63;3.50;;;;;;;;;;5094422;28;20034;-71
2021/09/11 02:35:49;;;;;;;5.70;3.13;;;;;;;;;;5113647;27;20027;-67
2021/09/11 02:38:15;;;;;;;3.42;3.03;;;;;;;;;;5112685;27;20142;-67
2021/09/11 02:40:40;;;;;;;3.47;3.17;;;;;;;;;;5133641;27;20043;-68
2021/09/11 02:43:06;;;;;;;2.95;2.75;;;;;;;;;;5134021;27;20049;-67
2021/09/11 02:45:31;;;;;;;6.45;3.30;;;;;;;;;;5119574;27;20480;-70
2021/09/11 02:47:56;;;;;;;4.78;3.30;;;;;;;;;;5115972;27;20047;-67
2021/09/11 02:50:22;;;;;;;3.58;2.90;;;;;;;;;;5111163;28;20515;-67
2021/09/11 02:52:47;;;;;;;5.18;3.30;;;;;;;;;;5111396;28;20388;-68
2021/09/11 02:55:13;;;;;;;3.40;3.10;;;;;;;;;;5112322;28;20030;-71
2021/09/11 02:57:38;;;;;;;3.80;3.05;;;;;;;;;;5112362;28;20019;-68
2021/09/11 03:00:04;;;;;;;5.25;3.28;;;;;;;;;;5112605;28;20487;-67
2021/09/11 03:02:30;;;;;;;3.20;2.90;;;;;;;;;;5129783;27;20034;-67
2021/09/11 03:04:55;;;;;;;3.10;2.80;;;;;;;;;;5132650;27;20023;-67
2021/09/11 03:07:20;;;;;;;3.72;2.80;;;;;;;;;;5132628;27;20491;-68
2021/09/11 03:09:46;;;;;;;6.70;3.05;;;;;;;;;;5131721;27;20025;-70
2021/09/11 03:12:11;;;;;;;3.35;3.00;;;;;;;;;;5131969;27;20472;-67
2021/09/11 03:14:36;;;;;;;3.17;2.92;;;;;;;;;;5133473;27;20023;-67
2021/09/11 03:17:02;;;;;;;3.30;2.95;;;;;;;;;;5131629;27;20037;-67
2021/09/11 03:19:27;;;;;;;4.20;3.10;;;;;;;;;;5132562;27;20468;-68
2021/09/11 03:21:53;;;;;;;3.05;2.80;;;;;;;;;;5131222;27;20808;-67
2021/09/11 03:24:18;;;;;;;3.58;2.63;;;;;;;;;;5131509;27;20023;-67
2021/09/11 03:26:43;;;;;;;3.33;3.00;;;;;;;;;;5130943;27;20030;-67
2021/09/11 03:29:09;;;;;;;5.72;3.17;;;;;;;;;;5130820;27;20043;-67
2021/09/11 03:31:34;;;;;;;4.60;3.08;;;;;;;;;;5130791;27;20538;-69
2021/09/11 03:34:00;;;;;;;8.10;3.08;;;;;;;;;;5132491;27;20050;-68
2021/09/11 03:36:25;;;;;;;4.55;3.20;;;;;;;;;;5132325;27;20106;-68
2021/09/11 03:38:50;;;;;;;4.57;3.15;;;;;;;;;;5131460;27;20100;-67
2021/09/11 03:41:16;;;;;;;4.50;3.28;;;;;;;;;;5132262;28;20118;-67
2021/09/11 03:43:42;;;;;;;4.65;3.10;;;;;;;;;;5131945;28;20030;-68
2021/09/11 03:46:07;;;;;;;5.75;3.17;;;;;;;;;;5132703;28;20461;-71
2021/09/11 03:48:32;;;;;;;4.03;3.10;;;;;;;;;;5132122;28;20023;-68
2021/09/11 03:50:58;;;;;;;3.75;2.95;;;;;;;;;;5132268;28;20045;-67
2021/09/11 03:53:24;;;;;;;4.15;3.17;;;;;;;;;;5133163;28;20102;-68
2021/09/11 03:55:49;;;;;;;4.50;3.35;;;;;;;;;;5128864;28;20057;-67
2021/09/11 03:58:15;;;;;;;3.65;3.30;;;;;;;;;;5132649;28;20027;-67
2021/09/11 04:00:41;;;;;;;3.40;3.10;;;;;;;;;;5132370;28;20027;-68
2021/09/11 04:03:06;;;;;;;3.75;3.05;;;;;;;;;;5127014;28;20031;-67
2021/09/11 04:05:31;;;;;;;3.80;3.38;;;;;;;;;;5108936;28;20584;-67
2021/09/11 04:07:57;;;;;;;3.40;3.10;;;;;;;;;;5110651;28;20028;-67
2021/09/11 04:10:22;;;;;;;3.53;3.20;;;;;;;;;;5109549;28;20023;-67
2021/09/11 04:12:48;;;;;;;5.32;3.00;;;;;;;;;;5109893;28;20028;-69
2021/09/11 04:15:13;;;;;;;3.15;2.85;;;;;;;;;;4405991;27;10000771;-74
2021/09/11 04:17:39;;;;;;;3.40;3.10;;;;;;;;;;5114219;28;20023;-67
2021/09/11 04:20:05;;;;;;;3.47;2.80;;;;;;;;;;5097809;28;20456;-69
2021/09/11 04:22:30;;;;;;;4.93;3.10;;;;;;;;;;5118201;28;20054;-71
2021/09/11 04:24:56;;;;;;;5.13;3.08;;;;;;;;;;5118099;28;20046;-67
2021/09/11 04:27:21;;;;;;;6.30;2.83;;;;;;;;;;5117401;28;20023;-67
2021/09/11 04:29:46;;;;;;;3.33;2.65;;;;;;;;;;5117188;27;20076;-70
2021/09/11 04:32:11;;;;;;;3.40;3.05;;;;;;;;;;5118697;27;20859;-68
2021/09/11 04:34:37;;;;;;;4.07;2.83;;;;;;;;;;5122103;27;20435;-67
2021/09/11 04:37:02;;;;;;;3.88;2.90;;;;;;;;;;5119115;27;20073;-68
2021/09/11 04:39:28;;;;;;;6.93;2.75;;;;;;;;;;5121225;27;20720;-67
2021/09/11 04:41:53;;;;;;;3.33;2.67;;;;;;;;;;5120814;27;20027;-69
2021/09/11 04:44:18;;;;;;;4.00;2.90;;;;;;;;;;5103896;27;20400;-69
2021/09/11 04:46:44;;;;;;;5.80;2.83;;;;;;;;;;5119988;27;20511;-67
2021/09/11 04:49:09;;;;;;;3.65;2.88;;;;;;;;;;5119750;27;20023;-68
2021/09/11 04:51:34;;;;;;;4.05;2.88;;;;;;;;;;5119744;27;20030;-67
2021/09/11 04:54:00;;;;;;;4.35;2.70;;;;;;;;;;5120031;27;20389;-69
2021/09/11 04:56:25;;;;;;;4.22;2.65;;;;;;;;;;5118921;27;20026;-69
2021/09/11 04:58:51;;;;;;;3.10;2.67;;;;;;;;;;5099369;27;20437;-66
2021/09/11 05:01:16;;;;;;;3.05;2.75;;;;;;;;;;5118465;27;20024;-69
2021/09/11 05:03:41;;;;;;;3.45;2.70;;;;;;;;;;5118778;27;20019;-66
2021/09/11 05:06:07;;;;;;;4.65;2.80;;;;;;;;;;5117736;27;20019;-69
2021/09/11 05:08:32;;;;;;;3.22;2.90;;;;;;;;;;5119081;27;20050;-68
2021/09/11 05:10:57;;;;;;;4.40;2.80;;;;;;;;;;5119066;27;20827;-70
2021/09/11 05:13:23;;;;;;;3.58;2.95;;;;;;;;;;5119519;27;20027;-70
2021/09/11 05:15:48;;;;;;;3.25;2.90;;;;;;;;;;5116539;27;20023;-69
2021/09/11 05:18:14;;;;;;;3.05;2.70;;;;;;;;;;5115828;27;20392;-68
2021/09/11 05:20:39;;;;;;;3.90;3.03;;;;;;;;;;5118339;27;20027;-69
2021/09/11 05:23:04;;;;;;;4.75;2.97;;;;;;;;;;5119055;27;20051;-70
2021/09/11 05:25:30;;;;;;;4.65;3.03;;;;;;;;;;5117225;27;20035;-68
2021/09/11 05:27:55;;;;;;;3.50;2.72;;;;;;;;;;5117013;27;20027;-66
2021/09/11 05:30:21;;;;;;;4.40;3.15;;;;;;;;;;5117939;27;20556;-67
2021/09/11 05:32:46;;;;;;;3.20;2.80;;;;;;;;;;5115762;27;20583;-70
2021/09/11 05:35:12;;;;;;;5.40;3.00;;;;;;;;;;5114949;27;20032;-68
2021/09/11 05:37:38;;;;;;;5.03;3.13;;;;;;;;;;5113100;27;20026;-67
2021/09/11 05:40:04;;;;;;;3.05;2.42;;;;;;;;;;5099202;27;20019;-66
2021/09/11 05:42:30;;;;;;;3.75;2.88;;;;;;;;;;5097494;27;20062;-66
2021/09/11 05:44:59;;;;;;;4.00;2.90;;;;;;;;;;5098730;27;20047;-67
2021/09/11 05:47:24;;;;;;;6.00;3.20;;;;;;;;;;5098248;27;20043;-66
2021/09/11 05:49:49;;;;;;;3.63;2.92;;;;;;;;;;5117647;27;20050;-66
2021/09/11 05:52:15;;;;;;;5.80;3.03;;;;;;;;;;5116414;27;20090;-69
2021/09/11 05:54:40;;;;;;;5.07;3.42;;;;;;;;;;5117537;27;20031;-65
2021/09/11 05:57:06;;;;;;;4.50;4.00;;;;;;;;;;5131969;27;20034;-69
2021/09/11 05:59:31;;;;;;;5.10;3.33;;;;;;;;;;5098041;27;20432;-68
2021/09/11 06:01:56;;;;;;;4.10;2.70;;;;;;;;;;5098750;27;20437;-69
2021/09/11 06:04:22;;;;;;;3.80;3.08;;;;;;;;;;5116845;27;20508;-66
2021/09/11 06:06:47;;;;;;;4.05;3.10;;;;;;;;;;5114770;27;20520;-66
2021/09/11 06:09:13;;;;;;;3.90;2.80;;;;;;;;;;5115704;27;20026;-67
2021/09/11 06:11:38;;;;;;;5.07;2.50;;;;;;;;;;5098961;27;20024;-66
2021/09/11 06:14:03;;;;;;;3.42;2.70;;;;;;;;;;5117118;27;20408;-67
2021/09/11 06:16:29;;;;;;;2.92;2.60;;;;;;;;;;5117164;27;20072;-68
2021/09/11 06:18:54;;;;;;;3.92;2.20;;;;;;;;;;5115109;27;20027;-66
2021/09/11 06:21:19;;;;;;;3.97;2.10;;;;;;;;;;5098278;27;20155;-69
2021/09/11 06:23:45;;;;;;;3.22;2.15;;;;;;;;;;5117849;27;20489;-68
2021/09/11 06:26:10;;;;;;;4.07;2.00;;;;;;;;;;5114718;27;20379;-67
2021/09/11 06:28:36;;;;;;;3.22;2.22;;;;;;;;;;5114657;27;20413;-66
2021/09/11 06:31:01;;;;;;;3.58;2.85;;;;;;;;;;5116417;27;20028;-65
2021/09/11 06:33:26;;;;;;;3.85;2.45;;;;;;;;;;5117018;27;20719;-66
2021/09/11 06:35:52;;;;;;;2.40;2.20;;;;;;;;;;5097245;27;20028;-66
2021/09/11 06:38:17;;;;;;;5.03;2.50;;;;;;;;;;5114296;27;20029;-67
2021/09/11 06:40:42;;;;;;;5.93;3.00;;;;;;;;;;5096908;27;20536;-69
2021/09/11 06:43:08;;;;;;;19.45;5.47;;;;;;;;;;5115198;27;20419;-68
2021/09/11 06:45:33;;;;;;;7.57;4.00;;;;;;;;;;5116264;27;20361;-70
2021/09/11 06:47:58;;;;;;;7.85;3.50;;;;;;;;;;5094189;27;20420;-68
2021/09/11 06:50:24;;;;;;;7.57;3.58;;;;;;;;;;5109719;27;20039;-68
2021/09/11 06:52:49;;;;;;;5.88;3.50;;;;;;;;;;5113975;27;20027;-68
2021/09/11 06:55:15;;;;;;;4.70;3.58;;;;;;;;;;5111215;27;20186;-69
2021/09/11 06:57:40;;;;;;;6.47;3.53;;;;;;;;;;5095107;27;20103;-66
2021/09/11 07:00:07;;;;;;;4.78;3.60;;;;;;;;;;5108841;27;20034;-69
2021/09/11 07:02:32;;;;;;;4.45;3.63;;;;;;;;;;5095256;27;20027;-69
2021/09/11 07:04:57;;;;;;;6.70;4.10;;;;;;;;;;5112413;27;20039;-68
2021/09/11 07:07:23;;;;;;;8.50;4.05;;;;;;;;;;5110155;27;20040;-68
2021/09/11 07:09:48;;;;;;;5.47;3.50;;;;;;;;;;5113293;27;20392;-68
2021/09/11 07:12:15;;;;;;;7.28;3.80;;;;;;;;;;5113527;27;20027;-66
2021/09/11 07:14:41;;;;;;;;;;;;;;;;;;5111972;27;20023;-68
2021/09/11 07:17:06;;;;;;;4.27;3.70;;;;;;;;;;5115132;27;19922;-70
2021/09/11 07:19:31;;;;;;;5.20;3.40;;;;;;;;;;5093683;28;20037;-65
2021/09/11 07:21:57;;;;;;;6.55;4.28;;;;;;;;;;5097164;27;20022;-65
2021/09/11 07:24:23;;;;;;;4.78;4.25;;;;;;;;;;5115622;27;20067;-70
2021/09/11 07:26:48;;;;;;;6.22;4.18;;;;;;;;;;5113655;27;20019;-68
2021/09/11 07:29:14;;;;;;;6.03;4.50;;;;;;;;;;5108267;27;20472;-68
2021/09/11 07:31:40;;;;;;;5.53;4.17;;;;;;;;;;5113897;27;20577;-68
2021/09/11 07:34:05;;;;;;;5.00;3.70;;;;;;;;;;5114300;27;20031;-71
2021/09/11 07:36:31;;;;;;;4.28;3.35;;;;;;;;;;5114641;27;20032;-67
2021/09/11 07:38:56;;;;;;;6.20;3.53;;;;;;;;;;5095369;27;20045;-70
2021/09/11 07:41:22;;;;;;;4.78;3.20;;;;;;;;;;5115919;28;20022;-66
2021/09/11 07:43:47;;;;;;;3.75;3.05;;;;;;;;;;5114037;28;20842;-66
2021/09/11 07:46:13;;;;;;;6.05;3.50;;;;;;;;;;5111240;28;20027;-67
2021/09/11 07:48:38;;;;;;;5.68;3.47;;;;;;;;;;5094007;28;20509;-67
2021/09/11 07:51:03;;;;;;;5.03;3.20;;;;;;;;;;5093313;28;20090;-66
2021/09/11 07:53:29;;;;;;;4.90;3.58;;;;;;;;;;5112056;28;20027;-66
2021/09/11 07:55:54;;;;;;;4.53;3.22;;;;;;;;;;5103572;28;20035;-69
2021/09/11 07:58:20;;;;;;;4.10;3.05;;;;;;;;;;5109940;28;20499;-68
2021/09/11 08:00:45;;;;;;;6.07;2.83;;;;;;;;;;5111482;28;20032;-71
2021/09/11 08:03:10;;;;;;;3.58;2.88;;;;;;;;;;5113775;27;20452;-69
2021/09/11 08:05:37;;;;;;;3.33;2.83;;;;;;;;;;5100928;27;20037;-67
2021/09/11 08:08:03;;;;;;;4.00;3.00;;;;;;;;;;5119878;27;20027;-66
2021/09/11 08:10:29;;;;;;;4.50;2.75;;;;;;;;;;5101663;27;20019;-67
2021/09/11 08:12:54;;;;;;;2.65;2.45;;;;;;;;;;5119891;27;20035;-67
2021/09/11 08:15:22;;;;;;;3.90;2.72;;;;;;;;;;5100987;27;20031;-67
2021/09/11 08:17:48;;;;;;;3.00;2.53;;;;;;;;;;5116550;27;20030;-67
2021/09/11 08:20:14;;;;;;;3.38;2.60;;;;;;;;;;5114195;27;20046;-68
2021/09/11 08:22:43;;;;;;;3.20;2.50;;;;;;;;;;5116184;27;20051;-67
2021/09/11 08:25:09;;;;;;;3.28;2.60;;;;;;;;;;5115164;27;20079;-67
2021/09/11 08:27:35;;;;;;;2.93;2.63;;;;;;;;;;5118874;27;20027;-66
2021/09/11 08:30:00;;;;;;;2.88;2.50;;;;;;;;;;5090401;27;20039;-69
2021/09/11 08:32:26;;;;;;;3.80;3.08;;;;;;;;;;5118500;27;20033;-68
2021/09/11 08:34:52;;;;;;;5.53;2.53;;;;;;;;;;5119593;27;20030;-69
2021/09/11 08:37:18;;;;;;;5.22;3.25;;;;;;;;;;5118409;27;20101;-68
2021/09/11 08:39:44;;;;;;;3.30;3.00;;;;;;;;;;5132981;27;20500;-66
2021/09/11 08:42:10;;;;;;;3.28;2.92;;;;;;;;;;5101929;27;20026;-64
2021/09/11 08:44:36;;;;;;;3.50;3.20;;;;;;;;;;5118298;27;20025;-66
2021/09/11 08:47:02;;;;;;;4.47;3.17;;;;;;;;;;5116957;27;20024;-68
2021/09/11 08:49:27;;;;;;;5.82;3.42;;;;;;;;;;5099773;27;20038;-66
2021/09/11 08:51:52;;;;;;;3.75;3.35;;;;;;;;;;5117930;27;20468;-67
2021/09/11 08:54:21;;;;;;;4.40;3.50;;;;;;;;;;5111627;27;20061;-67
2021/09/11 08:56:49;;;;;;;5.80;3.60;;;;;;;;;;5108061;27;20102;-67
2021/09/11 08:59:18;;;;;;;4.07;3.60;;;;;;;;;;5115165;27;20034;-69
2021/09/11 09:01:58;;;;;;;5.20;3.90;;;;;;;;;;5111492;27;20031;-69
2021/09/11 09:04:41;;;;;;;4.55;3.78;;;;;;;;;;5112448;27;20026;-70
2021/09/11 09:07:06;;;;;;;4.65;3.75;;;;;;;;;;5110397;27;20027;-65
2021/09/11 09:09:42;;;;;;;4.18;3.78;;;;;;;;;;5112907;27;20031;-67
2021/09/11 09:12:17;;;;;;;4.53;3.15;;;;;;;;;;5091278;27;20043;-67
2021/09/11 09:14:59;;;;;;;3.20;2.90;;;;;;;;;;5109158;27;20035;-68
2021/09/11 09:17:40;;;;;;;4.28;3.13;;;;;;;;;;5112977;27;20035;-66
2021/09/11 09:20:21;;;;;;;3.42;2.80;;;;;;;;;;5124591;27;20027;-67
2021/09/11 09:23:12;;;;;;;4.60;3.10;;;;;;;;;;5091143;27;20035;-65
2021/09/11 09:25:38;;;;;;;3.33;2.92;;;;;;;;;;5111583;27;20026;-67
2021/09/11 09:28:06;;;;;;;4.87;3.03;;;;;;;;;;5095002;27;20023;-66
2021/09/11 09:30:39;;;;;;;4.65;2.90;;;;;;;;;;5116066;27;20039;-68
2021/09/11 09:33:06;;;;;;;3.17;2.80;;;;;;;;;;5115251;27;20024;-68
2021/09/11 09:35:33;;;;;;;3.03;2.83;;;;;;;;;;5095572;27;20732;-67
2021/09/11 09:37:59;;;;;;;;;;;;;;;;;;5117615;27;20073;-65
2021/09/11 09:40:41;;;;;;;3.10;2.75;;;;;;;;;;5111932;27;19919;-65
2021/09/11 09:43:08;;;;;;;3.55;2.80;;;;;;;;;;5098711;27;20030;-65
2021/09/11 09:45:34;;;;;;;3.15;2.67;;;;;;;;;;5116119;27;20836;-66
2021/09/11 09:48:03;;;;;;;5.78;2.90;;;;;;;;;;5114763;27;20027;-67
2021/09/11 09:50:38;;;;;;;3.58;3.00;;;;;;;;;;5131732;27;20500;-68
2021/09/11 09:53:04;;;;;;;2.88;2.60;;;;;;;;;;5116980;27;20030;-67
2021/09/11 09:55:30;;;;;;;3.55;2.70;;;;;;;;;;5118223;27;20031;-68
2021/09/11 09:57:55;;;;;;;3.93;2.50;;;;;;;;;;5117111;27;20031;-68
2021/09/11 10:00:21;;;;;;;3.67;2.80;;;;;;;;;;5117803;27;20423;-66
2021/09/11 10:02:46;;;;;;;2.58;2.38;;;;;;;;;;5116675;27;20026;-68
2021/09/11 10:05:14;;;;;;;3.97;2.60;;;;;;;;;;5116982;27;20034;-68
2021/09/11 10:08:02;;;;;;;4.40;2.50;;;;;;;;;;5131416;27;20023;-66
2021/09/11 10:10:33;;;;;;;3.83;2.88;;;;;;;;;;5117280;27;20023;-65
2021/09/11 10:13:08;;;;;;;3.15;2.72;;;;;;;;;;5117507;27;20027;-66
2021/09/11 10:15:35;;;;;;;4.60;2.85;;;;;;;;;;5116709;27;20023;-67
2021/09/11 10:18:22;;;;;;;3.10;2.50;;;;;;;;;;5116334;27;20076;-64
2021/09/11 10:21:13;;;;;;;;;;;;;;;;;;5116003;27;20061;-66
2021/09/11 10:23:55;;;;;;;4.32;2.47;;;;;;;;;;5065390;27;20027;-67
2021/09/11 10:26:42;;;;;;;2.97;2.50;;;;;;;;;;5097806;27;20015;-69
2021/09/11 10:29:33;;;;;;;3.42;2.40;;;;;;;;;;5098563;27;20400;-66
2021/09/11 10:32:10;;;;;;;3.42;2.67;;;;;;;;;;5116371;27;20659;-65
2021/09/11 10:35:02;;;;;;;3.90;2.38;;;;;;;;;;5116242;27;20686;-64
2021/09/11 10:37:30;;;;;;;3.03;2.67;;;;;;;;;;5098452;27;20204;-66
2021/09/11 10:40:19;;;;;;;3.38;2.30;;;;;;;;;;5116795;27;20027;-68
2021/09/11 10:43:18;;;;;;;3.00;2.20;;;;;;;;;;5115031;27;20019;-67
2021/09/11 10:45:53;;;;;;;4.18;2.72;;;;;;;;;;5087988;27;20039;-64
2021/09/11 10:48:36;;;;;;;2.75;2.42;;;;;;;;;;5115994;27;20058;-66
2021/09/11 10:51:30;;;;;;;3.25;2.13;;;;;;;;;;5115635;27;20019;-68
2021/09/11 10:53:58;;;;;;;2.60;2.40;;;;;;;;;;5098169;27;20027;-66
2021/09/11 10:56:29;;;;;;;2.97;2.50;;;;;;;;;;5115438;27;20689;-68
2021/09/11 10:59:19;;;;;;;3.78;2.60;;;;;;;;;;5115239;27;20032;-68
2021/09/11 11:01:55;;;;;;;3.55;2.38;;;;;;;;;;5113649;27;20541;-70
2021/09/11 11:04:31;;;;;;;2.63;2.33;;;;;;;;;;5114680;27;20533;-67
2021/09/11 11:06:59;;;;;;;3.08;2.60;;;;;;;;;;5124583;27;20055;-67
2021/09/11 11:09:24;;;;;;;3.53;2.75;;;;;;;;;;5093766;27;20050;-67
2021/09/11 11:11:53;;;;;;;3.60;2.58;;;;;;;;;;5096443;27;20781;-66
2021/09/11 11:14:19;;;;;;;2.97;2.33;;;;;;;;;;5115107;27;20083;-65
2021/09/11 11:16:45;;;;;;;4.53;2.55;;;;;;;;;;5116010;27;20023;-67
2021/09/11 11:19:27;;;;;;;3.95;2.97;;;;;;;;;;5115834;27;20024;-65
2021/09/11 11:22:06;;;;;;;3.47;2.50;;;;;;;;;;5114051;27;20053;-67
2021/09/11 11:24:36;;;;;;;3.63;2.42;;;;;;;;;;5113922;27;20061;-67
2021/09/11 11:27:03;;;;;;;2.72;2.47;;;;;;;;;;5104251;28;20020;-64
2021/09/11 11:29:29;;;;;;;3.25;2.63;;;;;;;;;;5105215;28;20103;-67
2021/09/11 11:31:55;;;;;;;3.05;2.60;;;;;;;;;;5087095;28;20024;-69
2021/09/11 11:34:20;;;;;;;3.85;2.38;;;;;;;;;;5105158;28;20035;-66
2021/09/11 11:36:57;;;;;;;4.15;2.95;;;;;;;;;;5085994;28;20031;-68
2021/09/11 11:39:25;;;;;;;3.13;2.83;;;;;;;;;;5104784;28;20030;-65
2021/09/11 11:42:03;;;;;;;3.03;2.40;;;;;;;;;;5106031;27;20072;-69
2021/09/11 11:44:31;;;;;;;3.05;2.47;;;;;;;;;;5103940;28;20030;-67
2021/09/11 11:47:28;;;;;;;2.67;2.30;;;;;;;;;;5104547;28;20492;-66
2021/09/11 11:49:54;;;;;;;2.75;2.38;;;;;;;;;;5105194;28;20033;-66
2021/09/11 11:52:21;;;;;;;3.25;2.03;;;;;;;;;;5105112;28;20032;-67
2021/09/11 11:54:48;;;;;;;3.13;2.33;;;;;;;;;;5112072;28;20513;-66
2021/09/11 11:57:17;;;;;;;3.00;2.67;;;;;;;;;;5105061;28;20027;-67
2021/09/11 11:59:44;;;;;;;2.70;2.40;;;;;;;;;;5105660;28;20035;-65
2021/09/11 12:02:33;;;;;;;3.67;2.88;;;;;;;;;;5086974;28;20077;-67
2021/09/11 12:05:16;;;;;;;3.38;2.50;;;;;;;;;;5091771;28;20043;-67
2021/09/11 12:07:53;;;;;;;2.45;1.90;;;;;;;;;;5104875;28;20107;-66
2021/09/11 12:10:18;;;;;;;3.47;2.35;;;;;;;;;;5104551;28;20031;-65
2021/09/11 12:12:48;;;;;;;4.30;2.87;;;;;;;;;;5104571;28;20028;-70
2021/09/11 12:15:18;;;;;;;2.55;2.33;;;;;;;;;;5104657;28;20027;-64
2021/09/11 12:17:52;;;;;;;3.85;2.40;;;;;;;;;;5085514;28;20618;-69
2021/09/11 12:20:18;;;;;;;2.88;2.63;;;;;;;;;;5104815;28;20110;-65
2021/09/11 12:22:43;;;;;;;4.30;2.80;;;;;;;;;;5105172;28;20107;-66
2021/09/11 12:25:09;;;;;;;3.58;2.70;;;;;;;;;;5102979;28;20030;-67
2021/09/11 12:27:34;;;;;;;3.43;2.57;;;;;;;;;;5084379;28;20023;-67
2021/09/11 12:30:05;;;;;;;3.00;2.70;;;;;;;;;;5087376;28;20086;-67
2021/09/11 12:32:30;;;;;;;5.43;2.63;;;;;;;;;;5105596;28;20588;-65
2021/09/11 12:35:08;;;;;;;3.17;2.50;;;;;;;;;;5086886;28;20023;-67
2021/09/11 12:37:52;;;;;;;3.75;2.63;;;;;;;;;;5104013;28;20055;-66
2021/09/11 12:40:18;;;;;;;3.78;2.30;;;;;;;;;;5104837;28;20015;-67
2021/09/11 12:42:43;;;;;;;3.07;2.17;;;;;;;;;;5104948;28;20621;-68
2021/09/11 12:45:11;;;;;;;2.93;2.30;;;;;;;;;;5086021;28;20023;-67
2021/09/11 12:47:36;;;;;;;3.78;2.60;;;;;;;;;;5103566;28;20053;-69
2021/09/11 12:50:02;;;;;;;4.07;2.50;;;;;;;;;;5106622;28;20473;-68
2021/09/11 12:52:27;;;;;;;2.63;2.20;;;;;;;;;;5108404;28;20034;-64
2021/09/11 12:54:52;;;;;;;2.70;2.40;;;;;;;;;;5089852;28;20098;-68
2021/09/11 12:57:18;;;;;;;3.63;2.40;;;;;;;;;;5108185;28;20102;-66
2021/09/11 12:59:44;;;;;;;4.13;2.37;;;;;;;;;;5108863;28;20023;-65
2021/09/11 13:02:10;;;;;;;3.85;2.00;;;;;;;;;;5108410;28;20028;-65
2021/09/11 13:04:35;;;;;;;2.47;2.00;;;;;;;;;;5107319;28;20084;-67
2021/09/11 13:07:01;;;;;;;4.13;2.33;;;;;;;;;;5109131;27;20516;-65
2021/09/11 13:09:26;;;;;;;2.10;1.90;;;;;;;;;;5089847;28;20642;-65
2021/09/11 13:11:51;;;;;;;2.50;1.83;;;;;;;;;;5089431;28;20031;-65
2021/09/11 13:14:18;;;;;;;2.03;1.83;;;;;;;;;;5089667;28;20541;-66
2021/09/11 13:16:44;;;;;;;3.97;1.85;;;;;;;;;;5107256;28;20851;-69
2021/09/11 13:19:10;;;;;;;1.23;1.13;;;;;;;;;;5108209;28;20062;-68
2021/09/11 13:21:38;;;;;;;2.13;1.40;;;;;;;;;;5107883;28;20130;-67
2021/09/11 13:24:04;;;;;;;2.08;1.35;;;;;;;;;;5107906;28;20026;-67
2021/09/11 13:26:31;;;;;;;1.67;1.42;;;;;;;;;;5104833;28;20027;-67
2021/09/11 13:28:57;;;;;;;2.13;1.50;;;;;;;;;;5106539;28;20066;-66
2021/09/11 13:31:23;;;;;;;;;;;;;;;;;;5107328;28;20741;-67
2021/09/11 13:33:49;;;;;;;2.63;1.40;;;;;;;;;;5108220;28;19951;-65
2021/09/11 13:36:20;;;;;;;2.13;1.48;;;;;;;;;;5089251;28;20020;-64
2021/09/11 13:38:46;;;;;;;3.22;1.85;;;;;;;;;;5106303;28;20053;-68
2021/09/11 13:41:12;;;;;;;1.70;1.60;;;;;;;;;;5106604;28;20027;-68
2021/09/11 13:43:38;;;;;;;2.20;1.60;;;;;;;;;;5088771;28;20035;-69
2021/09/11 13:46:04;;;;;;;1.77;1.40;;;;;;;;;;5107123;28;20480;-65
2021/09/11 13:48:29;;;;;;;1.58;1.42;;;;;;;;;;5106642;27;20023;-67
2021/09/11 13:50:55;;;;;;;1.75;1.50;;;;;;;;;;5106855;28;20027;-68
2021/09/11 13:53:21;;;;;;;2.60;1.50;;;;;;;;;;5107956;28;20023;-69
2021/09/11 13:55:46;;;;;;;3.80;1.50;;;;;;;;;;5105249;27;20024;-65
2021/09/11 13:58:11;;;;;;;1.30;1.20;;;;;;;;;;5087717;28;20835;-66
2021/09/11 14:00:37;;;;;;;2.07;1.87;;;;;;;;;;5102865;27;20031;-66
2021/09/11 14:03:02;;;;;;;1.87;1.70;;;;;;;;;;5106114;28;20102;-66
2021/09/11 14:05:28;;;;;;;2.83;1.90;;;;;;;;;;5088995;28;20041;-67
2021/09/11 14:07:54;;;;;;;2.50;1.80;;;;;;;;;;5106668;27;20122;-66
2021/09/11 14:10:20;;;;;;;3.87;2.00;;;;;;;;;;5106144;28;20060;-67
2021/09/11 14:12:47;;;;;;;2.60;1.90;;;;;;;;;;5086906;28;20023;-67
2021/09/11 14:15:16;;;;;;;3.08;1.80;;;;;;;;;;5103791;27;20027;-69
2021/09/11 14:17:41;;;;;;;5.05;2.00;;;;;;;;;;5117317;27;20047;-68
2021/09/11 14:20:07;;;;;;;2.65;1.80;;;;;;;;;;5106329;28;20031;-68
2021/09/11 14:22:33;;;;;;;2.13;1.80;;;;;;;;;;5105125;27;20027;-68
2021/09/11 14:24:58;;;;;;;2.87;1.80;;;;;;;;;;5105033;28;20389;-67
2021/09/11 14:27:24;;;;;;;3.83;1.83;;;;;;;;;;5105254;27;20095;-65
2021/09/11 14:29:49;;;;;;;3.92;1.75;;;;;;;;;;5106004;28;20052;-66
2021/09/11 14:32:17;;;;;;;2.17;1.63;;;;;;;;;;5105216;28;20030;-65
2021/09/11 14:34:42;;;;;;;3.47;1.75;;;;;;;;;;5106536;28;20079;-66
2021/09/11 14:37:08;;;;;;;1.85;1.70;;;;;;;;;;5087532;28;20023;-70
2021/09/11 14:39:34;;;;;;;3.20;1.95;;;;;;;;;;5105596;28;20503;-67
2021/09/11 14:42:00;;;;;;;3.10;1.80;;;;;;;;;;5086264;28;20438;-67
2021/09/11 14:44:26;;;;;;;2.28;1.70;;;;;;;;;;5103982;27;20042;-69
2021/09/11 14:46:52;;;;;;;2.65;1.80;;;;;;;;;;5086916;28;20055;-68